createdAt,value
2023-04-21T00:00:21.437Z,978.69
2023-04-21T00:01:21.397Z,978.67
2023-04-21T00:02:22.013Z,978.64
2023-04-21T00:03:22.689Z,978.62
2023-04-21T00:04:22.487Z,978.61
2023-04-21T00:05:22.730Z,978.65
2023-04-21T00:06:23.197Z,978.67
2023-04-21T00:07:23.286Z,978.67
2023-04-21T00:08:23.811Z,978.72
2023-04-21T00:09:24.369Z,978.71
2023-04-21T00:10:24.937Z,978.67
2023-04-21T00:11:25.510Z,978.66
2023-04-21T00:12:26.068Z,978.64
2023-04-21T00:13:26.612Z,978.67
2023-04-21T00:14:27.150Z,978.68
2023-04-21T00:15:27.709Z,978.65
2023-04-21T00:16:28.305Z,978.66
2023-04-21T00:17:28.341Z,978.64
2023-04-21T00:18:28.312Z,978.59
2023-04-21T00:19:28.866Z,978.54
2023-04-21T00:20:29.442Z,978.53
2023-04-21T00:21:30.005Z,978.51
2023-04-21T00:22:30.014Z,978.49
2023-04-21T00:23:30.565Z,978.46
2023-04-21T00:24:31.114Z,978.45
2023-04-21T00:25:31.655Z,978.44
2023-04-21T00:26:32.195Z,978.47
2023-04-21T00:27:32.746Z,978.47
2023-04-21T00:28:33.306Z,978.46
2023-04-21T00:29:33.847Z,978.43
2023-04-21T00:30:34.380Z,978.41
2023-04-21T00:31:34.965Z,978.37
2023-04-21T00:32:34.960Z,978.36
2023-04-21T00:33:35.477Z,978.32
2023-04-21T00:34:35.994Z,978.29
2023-04-21T00:35:36.501Z,978.26
2023-04-21T00:36:37.006Z,978.25
2023-04-21T00:37:37.518Z,978.26
2023-04-21T00:38:38.042Z,978.25
2023-04-21T00:39:38.561Z,978.26
2023-04-21T00:40:39.063Z,978.25
2023-04-21T00:41:39.564Z,978.26
2023-04-21T00:42:40.069Z,978.24
2023-04-21T00:43:40.562Z,978.20
2023-04-21T00:44:41.067Z,978.18
2023-04-21T00:45:41.563Z,978.16
2023-04-21T00:46:42.101Z,978.14
2023-04-21T00:47:42.655Z,978.12
2023-04-21T00:48:42.637Z,978.12
2023-04-21T00:49:43.141Z,978.14
2023-04-21T00:50:43.668Z,978.14
2023-04-21T00:51:44.187Z,978.14
2023-04-21T00:52:44.710Z,978.14
2023-04-21T00:53:45.207Z,978.14
2023-04-21T00:54:45.708Z,978.12
2023-04-21T00:55:46.259Z,978.11
2023-04-21T00:56:46.765Z,978.06
2023-04-21T00:57:47.278Z,978.03
2023-04-21T00:58:47.792Z,978.01
2023-04-21T00:59:48.303Z,977.99
2023-04-21T01:00:48.879Z,977.97
2023-04-21T01:01:48.898Z,977.95
2023-04-21T01:02:48.948Z,977.98
2023-04-21T01:03:49.067Z,978.01
2023-04-21T01:04:49.114Z,978.02
2023-04-21T01:05:49.656Z,978.03
2023-04-21T01:06:50.162Z,978.03
2023-04-21T01:07:50.661Z,978.02
2023-04-21T01:08:51.176Z,977.99
2023-04-21T01:09:51.706Z,978.01
2023-04-21T01:10:52.236Z,977.99
2023-04-21T01:11:52.744Z,977.99
2023-04-21T01:12:53.257Z,978.00
2023-04-21T01:13:53.773Z,978.01
2023-04-21T01:14:54.289Z,978.01
2023-04-21T01:15:54.797Z,978.05
2023-04-21T01:16:55.387Z,978.04
2023-04-21T01:17:55.379Z,978.04
2023-04-21T01:18:55.996Z,978.02
2023-04-21T01:19:56.019Z,978.00
2023-04-21T01:20:55.938Z,977.97
2023-04-21T01:21:55.939Z,977.97
2023-04-21T01:22:56.464Z,977.97
2023-04-21T01:23:56.970Z,977.94
2023-04-21T01:24:57.484Z,977.92
2023-04-21T01:25:57.982Z,977.88
2023-04-21T01:26:58.482Z,977.88
2023-04-21T01:27:59.057Z,977.85
2023-04-21T01:28:59.563Z,977.82
2023-04-21T01:30:00.065Z,977.82
2023-04-21T01:31:00.573Z,977.80
2023-04-21T01:32:01.116Z,977.80
2023-04-21T01:33:01.680Z,977.80
2023-04-21T01:34:02.212Z,977.78
2023-04-21T01:35:02.722Z,977.75
2023-04-21T01:36:03.219Z,977.74
2023-04-21T01:37:03.716Z,977.79
2023-04-21T01:38:04.210Z,977.82
2023-04-21T01:39:04.727Z,977.84
2023-04-21T01:40:05.287Z,977.86
2023-04-21T01:41:05.796Z,977.88
2023-04-21T01:42:06.299Z,977.90
2023-04-21T01:43:06.801Z,977.92
2023-04-21T01:44:07.324Z,977.90
2023-04-21T01:45:07.856Z,977.93
2023-04-21T01:46:08.402Z,977.92
2023-04-21T01:47:08.923Z,977.90
2023-04-21T01:48:09.512Z,977.85
2023-04-21T01:49:09.482Z,977.82
2023-04-21T01:50:10.033Z,977.82
2023-04-21T01:51:10.562Z,977.79
2023-04-21T01:52:10.602Z,977.79
2023-04-21T01:53:11.111Z,977.80
2023-04-21T01:54:11.606Z,977.83
2023-04-21T01:55:12.110Z,977.88
2023-04-21T01:56:12.623Z,977.90
2023-04-21T01:57:13.167Z,977.89
2023-04-21T01:58:13.721Z,977.89
2023-04-21T01:59:14.226Z,977.88
2023-04-21T02:00:14.738Z,977.84
2023-04-21T02:01:15.286Z,977.81
2023-04-21T02:02:15.924Z,977.79
2023-04-21T02:03:16.066Z,977.77
2023-04-21T02:04:16.273Z,977.70
2023-04-21T02:05:16.243Z,977.66
2023-04-21T02:06:16.741Z,977.62
2023-04-21T02:07:17.249Z,977.59
2023-04-21T02:08:17.757Z,977.59
2023-04-21T02:09:18.585Z,977.59
2023-04-21T02:10:18.729Z,977.61
2023-04-21T02:11:19.260Z,977.65
2023-04-21T02:12:19.791Z,977.71
2023-04-21T02:13:20.287Z,977.71
2023-04-21T02:14:20.772Z,977.72
2023-04-21T02:15:21.277Z,977.71
2023-04-21T02:16:21.846Z,977.70
2023-04-21T02:17:22.373Z,977.72
2023-04-21T02:18:22.901Z,977.72
2023-04-21T02:19:23.457Z,977.72
2023-04-21T02:20:24.020Z,977.73
2023-04-21T02:21:24.546Z,977.74
2023-04-21T02:22:24.628Z,977.74
2023-04-21T02:23:25.140Z,977.72
2023-04-21T02:24:25.689Z,977.72
2023-04-21T02:25:26.193Z,977.70
2023-04-21T02:26:26.683Z,977.72
2023-04-21T02:27:27.205Z,977.73
2023-04-21T02:28:27.738Z,977.71
2023-04-21T02:29:28.252Z,977.71
2023-04-21T02:30:28.756Z,977.73
2023-04-21T02:36:12.208Z,977.72
2023-04-21T02:37:13.370Z,977.73
2023-04-21T02:38:13.941Z,977.73
2023-04-21T02:39:14.503Z,977.73
2023-04-21T02:40:15.097Z,977.73
2023-04-21T02:41:15.668Z,977.73
2023-04-21T02:42:16.248Z,977.72
2023-04-21T02:43:16.828Z,977.71
2023-04-21T02:44:17.375Z,977.72
2023-04-21T02:45:17.916Z,977.70
2023-04-21T02:46:18.559Z,977.73
2023-04-21T02:47:18.572Z,977.73
2023-04-21T02:48:19.149Z,977.72
2023-04-21T02:49:20.061Z,977.74
2023-04-21T02:50:20.280Z,977.73
2023-04-21T02:51:20.867Z,977.73
2023-04-21T02:52:21.446Z,977.73
2023-04-21T02:53:22.037Z,977.74
2023-04-21T02:54:22.620Z,977.73
2023-04-21T02:55:23.192Z,977.77
2023-04-21T02:56:23.776Z,977.80
2023-04-21T02:57:24.361Z,977.82
2023-04-21T02:58:24.954Z,977.83
2023-04-21T02:59:25.536Z,977.84
2023-04-21T03:00:26.384Z,977.83
2023-04-21T03:01:26.492Z,977.83
2023-04-21T03:02:26.792Z,977.83
2023-04-21T03:03:26.999Z,977.81
2023-04-21T03:04:27.310Z,977.82
2023-04-21T03:05:27.497Z,977.81
2023-04-21T03:06:28.066Z,977.83
2023-04-21T03:07:28.652Z,977.81
2023-04-21T03:08:29.242Z,977.80
2023-04-21T03:09:29.832Z,977.80
2023-04-21T03:10:30.431Z,977.80
2023-04-21T03:11:31.035Z,977.81
2023-04-21T03:12:31.620Z,977.79
2023-04-21T03:13:32.192Z,977.79
2023-04-21T03:14:32.771Z,977.81
2023-04-21T03:15:33.343Z,977.78
2023-04-21T03:16:33.948Z,977.76
2023-04-21T03:17:34.589Z,977.75
2023-04-21T03:18:34.609Z,977.75
2023-04-21T03:19:35.191Z,977.75
2023-04-21T03:20:35.786Z,977.77
2023-04-21T03:21:36.377Z,977.77
2023-04-21T03:22:36.970Z,977.77
2023-04-21T03:23:37.550Z,977.75
2023-04-21T03:24:38.153Z,977.75
2023-04-21T03:25:38.771Z,977.76
2023-04-21T03:26:39.357Z,977.70
2023-04-21T03:27:39.923Z,977.73
2023-04-21T03:28:40.487Z,977.72
2023-04-21T03:29:41.061Z,977.72
2023-04-21T03:30:41.702Z,977.69
2023-04-21T03:31:41.718Z,977.67
2023-04-21T03:32:41.950Z,977.70
2023-04-21T03:33:41.946Z,977.67
2023-04-21T03:34:42.523Z,977.67
2023-04-21T03:35:43.099Z,977.66
2023-04-21T03:36:43.676Z,977.64
2023-04-21T03:37:44.239Z,977.65
2023-04-21T03:38:44.819Z,977.59
2023-04-21T03:39:45.403Z,977.54
2023-04-21T03:40:45.971Z,977.52
2023-04-21T03:41:46.556Z,977.48
2023-04-21T03:42:47.155Z,977.49
2023-04-21T03:43:47.720Z,977.52
2023-04-21T03:44:48.294Z,977.50
2023-04-21T03:45:48.921Z,977.55
2023-04-21T03:46:48.990Z,977.56
2023-04-21T03:47:49.758Z,977.58
2023-04-21T03:48:49.856Z,977.61
2023-04-21T03:49:49.920Z,977.62
2023-04-21T03:50:50.538Z,977.63
2023-04-21T03:51:51.183Z,977.62
2023-04-21T03:52:51.219Z,977.64
2023-04-21T03:53:51.844Z,977.64
2023-04-21T03:54:52.454Z,977.67
2023-04-21T03:55:53.085Z,977.67
2023-04-21T03:56:53.121Z,977.71
2023-04-21T03:57:53.740Z,977.74
2023-04-21T03:58:54.367Z,977.74
2023-04-21T03:59:54.972Z,977.75
2023-04-21T04:00:55.578Z,977.76
2023-04-21T04:01:56.194Z,977.79
2023-04-21T04:02:56.932Z,977.79
2023-04-21T04:03:57.230Z,977.83
2023-04-21T04:04:57.375Z,977.82
2023-04-21T04:05:57.515Z,977.87
2023-04-21T04:06:57.574Z,977.89
2023-04-21T04:07:57.622Z,977.95
2023-04-21T04:08:58.218Z,977.97
2023-04-21T04:09:58.838Z,977.97
2023-04-21T04:10:59.464Z,977.96
2023-04-21T04:12:00.123Z,977.95
2023-04-21T04:13:00.166Z,977.90
2023-04-21T04:14:00.795Z,977.89
2023-04-21T04:15:01.457Z,977.86
2023-04-21T04:16:01.564Z,977.83
2023-04-21T04:17:01.640Z,977.82
2023-04-21T04:18:02.279Z,977.81
2023-04-21T04:19:02.371Z,977.80
2023-04-21T04:20:02.420Z,977.81
2023-04-21T04:21:03.042Z,977.80
2023-04-21T04:22:03.654Z,977.83
2023-04-21T04:23:04.254Z,977.86
2023-04-21T04:24:04.864Z,977.87
2023-04-21T04:25:05.506Z,977.90
2023-04-21T04:26:05.759Z,977.95
2023-04-21T04:27:05.851Z,978.01
2023-04-21T04:28:05.873Z,978.03
2023-04-21T04:29:06.478Z,978.03
2023-04-21T04:30:07.135Z,978.08
2023-04-21T04:31:07.229Z,978.09
2023-04-21T04:32:07.288Z,978.08
2023-04-21T04:33:07.935Z,978.07
2023-04-21T04:34:07.977Z,978.08
2023-04-21T04:35:08.614Z,978.09
2023-04-21T04:36:09.222Z,978.13
2023-04-21T04:37:09.842Z,978.16
2023-04-21T04:38:10.450Z,978.17
2023-04-21T04:39:11.071Z,978.21
2023-04-21T04:40:11.682Z,978.23
2023-04-21T04:41:12.302Z,978.25
2023-04-21T04:42:12.946Z,978.26
2023-04-21T04:43:12.996Z,978.26
2023-04-21T04:44:13.062Z,978.25
2023-04-21T04:45:13.121Z,978.24
2023-04-21T04:46:13.750Z,978.20
2023-04-21T04:47:13.786Z,978.19
2023-04-21T04:48:14.415Z,978.17
2023-04-21T04:49:15.031Z,978.18
2023-04-21T04:50:15.630Z,978.19
2023-04-21T04:51:16.241Z,978.24
2023-04-21T04:52:16.826Z,978.25
2023-04-21T04:53:17.398Z,978.27
2023-04-21T04:54:18.355Z,978.30
2023-04-21T04:55:18.595Z,978.34
2023-04-21T04:56:19.176Z,978.34
2023-04-21T04:57:19.793Z,978.32
2023-04-21T04:58:20.379Z,978.29
2023-04-21T04:59:20.973Z,978.25
2023-04-21T05:00:21.578Z,978.20
2023-04-21T05:01:22.206Z,978.16
2023-04-21T05:02:22.363Z,978.13
2023-04-21T05:03:22.654Z,978.11
2023-04-21T05:04:23.137Z,978.12
2023-04-21T05:05:23.104Z,978.13
2023-04-21T05:06:23.686Z,978.12
2023-04-21T05:07:24.270Z,978.15
2023-04-21T05:08:24.890Z,978.17
2023-04-21T05:09:25.476Z,978.16
2023-04-21T05:10:26.042Z,978.18
2023-04-21T05:11:26.618Z,978.19
2023-04-21T05:12:27.198Z,978.18
2023-04-21T05:13:27.804Z,978.16
2023-04-21T05:14:28.406Z,978.16
2023-04-21T05:15:29.038Z,978.15
2023-04-21T05:16:29.060Z,978.12
2023-04-21T05:17:29.697Z,978.12
2023-04-21T05:18:29.707Z,978.14
2023-04-21T05:19:30.276Z,978.17
2023-04-21T05:20:30.864Z,978.20
2023-04-21T05:21:31.450Z,978.19
2023-04-21T05:22:32.046Z,978.15
2023-04-21T05:23:32.649Z,978.16
2023-04-21T05:24:33.218Z,978.13
2023-04-21T05:25:33.782Z,978.15
2023-04-21T05:26:34.348Z,978.17
2023-04-21T05:27:34.927Z,978.18
2023-04-21T05:28:35.496Z,978.21
2023-04-21T05:29:36.068Z,978.19
2023-04-21T05:30:36.640Z,978.18
2023-04-21T05:31:37.248Z,978.17
2023-04-21T05:32:37.860Z,978.18
2023-04-21T05:33:38.464Z,978.19
2023-04-21T05:34:39.074Z,978.17
2023-04-21T05:35:39.680Z,978.19
2023-04-21T05:36:40.258Z,978.19
2023-04-21T05:37:40.852Z,978.19
2023-04-21T05:38:42.434Z,978.20
2023-04-21T05:39:41.841Z,978.22
2023-04-21T05:40:42.442Z,978.22
2023-04-21T05:41:43.045Z,978.22
2023-04-21T05:42:43.634Z,978.20
2023-04-21T05:43:44.239Z,978.19
2023-04-21T05:44:44.821Z,978.17
2023-04-21T05:45:45.453Z,978.17
2023-04-21T05:46:45.508Z,978.21
2023-04-21T05:47:46.166Z,978.28
2023-04-21T05:48:46.190Z,978.35
2023-04-21T05:49:46.765Z,978.38
2023-04-21T05:50:47.352Z,978.37
2023-04-21T05:51:47.936Z,978.36
2023-04-21T05:52:48.532Z,978.30
2023-04-21T05:53:49.110Z,978.31
2023-04-21T05:54:49.686Z,978.28
2023-04-21T05:55:50.283Z,978.28
2023-04-21T05:56:50.853Z,978.32
2023-04-21T05:57:51.424Z,978.34
2023-04-21T05:58:52.029Z,978.35
2023-04-21T05:59:52.605Z,978.35
2023-04-21T06:00:53.178Z,978.35
2023-04-21T06:01:53.760Z,978.32
2023-04-21T06:02:54.468Z,978.33
2023-04-21T06:03:54.774Z,978.35
2023-04-21T06:04:55.002Z,978.35
2023-04-21T06:05:55.194Z,978.35
2023-04-21T06:06:55.310Z,978.33
2023-04-21T06:07:55.892Z,978.34
2023-04-21T06:08:56.468Z,978.31
2023-04-21T06:09:57.057Z,978.27
2023-04-21T06:10:57.647Z,978.25
2023-04-21T06:11:58.224Z,978.22
2023-04-21T06:12:58.824Z,978.20
2023-04-21T06:13:59.401Z,978.17
2023-04-21T06:14:59.970Z,978.15
2023-04-21T06:16:00.594Z,978.12
2023-04-21T06:17:00.612Z,978.09
2023-04-21T06:18:01.354Z,978.09
2023-04-21T06:19:01.449Z,978.04
2023-04-21T06:20:02.040Z,978.00
2023-04-21T06:21:02.652Z,978.01
2023-04-21T06:22:03.227Z,978.00
2023-04-21T06:23:03.823Z,977.98
2023-04-21T06:24:04.396Z,977.99
2023-04-21T06:25:04.962Z,978.01
2023-04-21T06:26:05.600Z,978.01
2023-04-21T06:27:05.619Z,977.98
2023-04-21T06:28:06.175Z,977.97
2023-04-21T06:29:06.745Z,977.92
2023-04-21T06:30:07.318Z,977.92
2023-04-21T06:31:08.984Z,977.92
2023-04-21T06:32:08.082Z,977.88
2023-04-21T06:33:08.151Z,977.85
2023-04-21T06:34:08.145Z,977.81
2023-04-21T06:35:08.713Z,977.80
2023-04-21T06:36:09.306Z,977.79
2023-04-21T06:37:09.900Z,977.79
2023-04-21T06:38:10.509Z,977.75
2023-04-21T06:39:10.551Z,977.74
2023-04-21T06:40:11.142Z,977.71
2023-04-21T06:41:11.722Z,977.70
2023-04-21T06:42:12.309Z,977.70
2023-04-21T06:43:12.901Z,977.72
2023-04-21T06:44:13.483Z,977.73
2023-04-21T06:45:14.058Z,977.71
2023-04-21T06:46:14.630Z,977.74
2023-04-21T06:47:15.246Z,977.73
2023-04-21T06:48:15.938Z,977.73
2023-04-21T06:49:15.954Z,977.73
2023-04-21T06:50:16.538Z,977.76
2023-04-21T06:51:17.134Z,977.76
2023-04-21T06:52:18.902Z,977.78
2023-04-21T06:53:17.759Z,977.82
2023-04-21T06:54:18.315Z,977.85
2023-04-21T06:55:18.868Z,977.82
2023-04-21T06:56:19.429Z,977.82
2023-04-21T06:57:20.000Z,977.80
2023-04-21T06:58:21.455Z,977.82
2023-04-21T06:59:21.202Z,977.83
2023-04-21T07:00:21.299Z,977.85
2023-04-21T07:01:21.916Z,977.90
2023-04-21T07:02:22.026Z,977.93
2023-04-21T07:03:22.316Z,977.98
2023-04-21T07:04:22.536Z,978.03
2023-04-21T07:05:22.545Z,977.99
2023-04-21T07:06:23.131Z,978.02
2023-04-21T07:07:23.724Z,977.98
2023-04-21T07:08:24.298Z,977.97
2023-04-21T07:09:24.885Z,977.95
2023-04-21T07:10:25.520Z,977.92
2023-04-21T07:11:25.536Z,977.91
2023-04-21T07:12:26.154Z,977.89
2023-04-21T07:13:26.144Z,977.87
2023-04-21T07:14:26.721Z,977.89
2023-04-21T07:15:27.306Z,977.89
2023-04-21T07:16:27.921Z,977.87
2023-04-21T07:17:27.963Z,977.91
2023-04-21T07:18:27.985Z,977.91
2023-04-21T07:19:28.620Z,977.92
2023-04-21T07:20:28.618Z,977.94
2023-04-21T07:21:29.200Z,977.91
2023-04-21T07:22:29.792Z,977.91
2023-04-21T07:23:30.386Z,977.85
2023-04-21T07:24:30.978Z,977.81
2023-04-21T07:25:31.552Z,977.80
2023-04-21T07:26:32.124Z,977.78
2023-04-21T07:27:32.722Z,977.77
2023-04-21T07:28:32.706Z,977.76
2023-04-21T07:29:33.275Z,977.72
2023-04-21T07:30:33.872Z,977.71
2023-04-21T07:31:34.000Z,977.70
2023-04-21T07:32:34.332Z,977.67
2023-04-21T07:33:34.916Z,977.63
2023-04-21T07:34:35.523Z,977.62
2023-04-21T07:35:35.513Z,977.63
2023-04-21T07:36:36.102Z,977.65
2023-04-21T07:37:36.086Z,977.66
2023-04-21T07:38:36.755Z,977.65
2023-04-21T07:39:36.741Z,977.59
2023-04-21T07:40:37.315Z,977.62
2023-04-21T07:41:37.895Z,977.61
2023-04-21T07:42:38.464Z,977.61
2023-04-21T07:43:39.023Z,977.58
2023-04-21T07:44:39.584Z,977.60
2023-04-21T07:45:40.125Z,977.58
2023-04-21T07:46:40.699Z,977.55
2023-04-21T07:47:40.712Z,977.57
2023-04-21T07:48:40.699Z,977.54
2023-04-21T07:49:41.237Z,977.56
2023-04-21T07:50:41.774Z,977.56
2023-04-21T07:51:42.321Z,977.58
2023-04-21T07:52:42.857Z,977.60
2023-04-21T07:53:43.402Z,977.60
2023-04-21T07:54:43.958Z,977.63
2023-04-21T07:55:44.534Z,977.63
2023-04-21T07:56:45.092Z,977.64
2023-04-21T07:57:45.656Z,977.68
2023-04-21T07:58:46.203Z,977.70
2023-04-21T07:59:46.775Z,977.72
2023-04-21T08:00:47.345Z,977.72
2023-04-21T08:01:48.114Z,977.71
2023-04-21T08:02:48.397Z,977.70
2023-04-21T08:03:48.940Z,977.64
2023-04-21T08:04:49.104Z,977.63
2023-04-21T08:05:49.444Z,977.63
2023-04-21T08:06:49.980Z,977.65
2023-04-21T08:07:49.505Z,977.68
2023-04-21T08:08:50.079Z,977.70
2023-04-21T08:09:50.121Z,977.71
2023-04-21T08:10:50.062Z,977.74
2023-04-21T08:11:50.605Z,977.74
2023-04-21T08:12:51.150Z,977.70
2023-04-21T08:13:51.742Z,977.66
2023-04-21T08:14:55.251Z,977.64
2023-04-21T08:15:52.296Z,977.64
2023-04-21T08:16:53.506Z,977.59
2023-04-21T08:17:53.002Z,977.63
2023-04-21T08:18:52.975Z,977.59
2023-04-21T08:19:52.955Z,977.60
2023-04-21T08:20:53.514Z,977.56
2023-04-21T08:21:54.096Z,977.57
2023-04-21T08:22:54.227Z,977.55
2023-04-21T08:23:54.208Z,977.53
2023-04-21T08:24:54.731Z,977.48
2023-04-21T08:25:55.293Z,977.48
2023-04-21T08:26:55.977Z,977.49
2023-04-21T08:27:55.930Z,977.49
2023-04-21T08:28:56.452Z,977.46
2023-04-21T08:29:56.985Z,977.48
2023-04-21T08:30:57.511Z,977.48
2023-04-21T08:31:58.122Z,977.47
2023-04-21T08:32:58.245Z,977.47
2023-04-21T08:34:02.481Z,977.45
2023-04-21T08:34:58.319Z,977.45
2023-04-21T08:36:05.456Z,977.43
2023-04-21T08:36:59.081Z,977.43
2023-04-21T08:37:59.046Z,977.42
2023-04-21T08:38:59.087Z,977.41
2023-04-21T08:39:59.103Z,977.42
2023-04-21T08:40:59.081Z,977.42
2023-04-21T08:41:59.605Z,977.42
2023-04-21T08:43:00.132Z,977.46
2023-04-21T08:44:00.123Z,977.48
2023-04-21T08:45:00.174Z,977.47
2023-04-21T08:46:00.269Z,977.49
2023-04-21T08:47:00.253Z,977.48
2023-04-21T08:48:00.834Z,977.49
2023-04-21T08:49:00.811Z,977.48
2023-04-21T08:50:00.774Z,977.45
2023-04-21T08:51:00.723Z,977.45
2023-04-21T08:52:00.691Z,977.45
2023-04-21T08:53:01.240Z,977.42
2023-04-21T08:54:01.207Z,977.43
2023-04-21T08:55:01.218Z,977.41
2023-04-21T08:56:10.908Z,977.39
2023-04-21T08:57:11.886Z,977.37
2023-04-21T08:58:01.662Z,977.39
2023-04-21T08:59:01.631Z,977.37
2023-04-21T09:00:02.981Z,977.38
2023-04-21T09:01:01.643Z,977.37
2023-04-21T09:02:01.776Z,977.36
2023-04-21T09:03:02.693Z,977.38
2023-04-21T09:04:02.436Z,977.39
2023-04-21T09:05:02.776Z,977.37
2023-04-21T09:06:02.745Z,977.38
2023-04-21T09:07:02.843Z,977.35
2023-04-21T09:08:02.816Z,977.34
2023-04-21T09:09:02.763Z,977.33
2023-04-21T09:10:02.724Z,977.32
2023-04-21T09:11:02.772Z,977.33
2023-04-21T09:12:02.748Z,977.35
2023-04-21T09:13:02.705Z,977.34
2023-04-21T09:14:02.684Z,977.34
2023-04-21T09:15:02.628Z,977.31
2023-04-21T09:16:02.606Z,977.35
2023-04-21T09:17:02.820Z,977.32
2023-04-21T09:18:02.926Z,977.29
2023-04-21T09:19:02.925Z,977.29
2023-04-21T09:20:02.882Z,977.28
2023-04-21T09:21:02.838Z,977.27
2023-04-21T09:22:02.793Z,977.26
2023-04-21T09:23:02.751Z,977.25
2023-04-21T09:24:02.701Z,977.25
2023-04-21T09:25:02.648Z,977.26
2023-04-21T09:26:02.669Z,977.25
2023-04-21T09:27:02.660Z,977.26
2023-04-21T09:28:02.616Z,977.28
2023-04-21T09:29:02.589Z,977.22
2023-04-21T09:30:02.557Z,977.21
2023-04-21T09:31:02.523Z,977.21
2023-04-21T09:32:02.496Z,977.21
2023-04-21T09:33:06.211Z,977.22
2023-04-21T09:34:02.709Z,977.25
2023-04-21T09:35:02.684Z,977.25
2023-04-21T09:36:02.652Z,977.25
2023-04-21T09:37:02.604Z,977.23
2023-04-21T09:38:02.547Z,977.25
2023-04-21T09:40:05.177Z,977.17
2023-04-21T09:41:02.671Z,977.17
2023-04-21T09:42:02.606Z,977.10
2023-04-21T09:43:02.554Z,977.07
2023-04-21T09:44:02.497Z,977.08
2023-04-21T09:45:28.450Z,977.04
2023-04-21T09:46:02.707Z,977.03
2023-04-21T09:47:02.773Z,977.03
2023-04-21T09:48:02.736Z,976.99
2023-04-21T09:49:02.705Z,976.99
2023-04-21T09:50:02.828Z,977.01
2023-04-21T09:51:28.229Z,977.02
2023-04-21T09:53:02.086Z,977.05
2023-04-21T09:54:03.198Z,977.06
2023-04-21T09:55:03.131Z,977.05
2023-04-21T09:56:03.073Z,977.07
2023-04-21T09:57:03.025Z,977.07
2023-04-21T09:58:02.971Z,977.07
2023-04-21T09:59:02.934Z,977.07
2023-04-21T10:00:02.907Z,977.09
2023-04-21T10:01:02.867Z,977.09
2023-04-21T10:02:02.883Z,977.06
2023-04-21T10:03:02.964Z,977.05
2023-04-21T10:04:03.128Z,977.04
2023-04-21T10:05:03.361Z,977.01
2023-04-21T10:06:03.560Z,976.99
2023-04-21T10:07:03.585Z,976.98
2023-04-21T10:08:03.562Z,976.97
2023-04-21T10:09:03.498Z,977.00
2023-04-21T10:10:03.427Z,976.92
2023-04-21T10:11:03.374Z,976.97
2023-04-21T10:12:03.312Z,976.98
2023-04-21T10:13:03.234Z,976.96
2023-04-21T10:14:03.193Z,977.00
2023-04-21T10:15:03.124Z,976.93
2023-04-21T10:16:03.062Z,976.88
2023-04-21T10:17:03.085Z,976.90
2023-04-21T10:18:03.069Z,976.87
2023-04-21T10:19:03.019Z,976.90
2023-04-21T10:20:02.941Z,976.85
2023-04-21T10:21:02.876Z,976.80
2023-04-21T10:22:02.777Z,976.78
2023-04-21T10:23:02.695Z,976.77
2023-04-21T10:24:03.171Z,976.78
2023-04-21T10:25:03.660Z,976.79
2023-04-21T10:26:04.135Z,976.80
2023-04-21T10:27:04.034Z,976.78
2023-04-21T10:28:03.954Z,976.77
2023-04-21T10:29:04.453Z,976.75
2023-04-21T10:30:04.379Z,976.74
2023-04-21T10:31:04.360Z,976.71
2023-04-21T10:32:05.208Z,976.69
2023-04-21T10:33:04.486Z,976.67
2023-04-21T10:34:04.395Z,976.66
2023-04-21T10:35:04.337Z,976.69
2023-04-21T10:36:04.247Z,976.68
2023-04-21T10:37:04.165Z,976.68
2023-04-21T10:38:04.060Z,976.65
2023-04-21T10:39:04.504Z,976.64
2023-04-21T10:40:04.415Z,976.63
2023-04-21T10:41:04.320Z,976.63
2023-04-21T10:42:04.224Z,976.62
2023-04-21T10:43:04.115Z,976.62
2023-04-21T10:44:04.573Z,976.57
2023-04-21T10:45:05.032Z,976.59
2023-04-21T10:46:05.497Z,976.56
2023-04-21T10:47:05.995Z,976.55
2023-04-21T10:48:05.875Z,976.55
2023-04-21T10:49:05.808Z,976.54
2023-04-21T10:50:06.224Z,976.54
2023-04-21T10:51:06.662Z,976.50
2023-04-21T10:52:07.122Z,976.48
2023-04-21T10:53:07.507Z,976.43
2023-04-21T10:54:07.946Z,976.43
2023-04-21T10:55:08.424Z,976.43
2023-04-21T10:56:08.263Z,976.39
2023-04-21T10:57:08.728Z,976.39
2023-04-21T10:58:09.203Z,976.35
2023-04-21T10:59:09.100Z,976.37
2023-04-21T11:00:08.967Z,976.39
2023-04-21T11:01:09.407Z,976.36
2023-04-21T11:02:09.333Z,976.35
2023-04-21T11:03:09.388Z,976.34
2023-04-21T11:04:09.410Z,976.33
2023-04-21T11:05:09.427Z,976.32
2023-04-21T11:06:09.252Z,976.30
2023-04-21T11:07:09.659Z,976.30
2023-04-21T11:08:10.043Z,976.28
2023-04-21T11:09:10.427Z,976.30
2023-04-21T11:10:10.811Z,976.27
2023-04-21T11:11:11.295Z,976.21
2023-04-21T11:12:11.115Z,976.21
2023-04-21T11:13:11.534Z,976.22
2023-04-21T11:14:11.393Z,976.24
2023-04-21T11:15:11.762Z,976.23
2023-04-21T11:16:12.169Z,976.22
2023-04-21T11:17:12.544Z,976.22
2023-04-21T11:18:12.907Z,976.19
2023-04-21T11:19:13.309Z,976.23
2023-04-21T11:20:13.690Z,976.19
2023-04-21T11:21:14.040Z,976.18
2023-04-21T11:22:14.422Z,976.20
2023-04-21T11:23:14.798Z,976.18
2023-04-21T11:24:15.168Z,976.20
2023-04-21T11:25:15.585Z,976.21
2023-04-21T11:26:15.976Z,976.17
2023-04-21T11:27:16.335Z,976.17
2023-04-21T11:28:16.700Z,976.17
2023-04-21T11:29:17.131Z,976.16
2023-04-21T11:30:17.536Z,976.13
2023-04-21T11:31:17.907Z,976.13
2023-04-21T11:32:18.285Z,976.10
2023-04-21T11:33:18.657Z,976.10
2023-04-21T11:34:18.735Z,976.16
2023-04-21T11:35:18.655Z,976.14
2023-04-21T11:36:18.991Z,976.12
2023-04-21T11:37:19.321Z,976.17
2023-04-21T11:38:19.662Z,976.16
2023-04-21T11:39:21.829Z,976.16
2023-04-21T11:40:20.264Z,976.17
2023-04-21T11:41:20.602Z,976.14
2023-04-21T11:42:20.917Z,976.12
2023-04-21T11:43:21.245Z,976.11
2023-04-21T11:44:21.582Z,976.08
2023-04-21T11:45:22.784Z,976.02
2023-04-21T11:46:22.148Z,976.07
2023-04-21T11:47:21.988Z,976.07
2023-04-21T11:48:21.689Z,976.07
2023-04-21T11:49:21.975Z,975.87
2023-04-21T11:50:22.222Z,975.86
2023-04-21T11:51:22.599Z,976.00
2023-04-21T11:52:22.284Z,975.91
2023-04-21T11:53:22.535Z,975.92
2023-04-21T11:54:22.786Z,975.80
2023-04-21T11:55:23.047Z,975.78
2023-04-21T11:56:23.298Z,975.78
2023-04-21T11:57:23.567Z,975.91
2023-04-21T11:58:23.843Z,975.94
2023-04-21T11:59:25.657Z,975.93
2023-04-21T12:00:24.015Z,975.89
2023-04-21T12:01:24.291Z,975.88
2023-04-21T12:02:24.666Z,975.86
2023-04-21T12:03:24.539Z,975.84
2023-04-21T12:04:24.381Z,975.83
2023-04-21T12:05:24.143Z,975.58
2023-04-21T12:06:23.968Z,975.58
2023-04-21T12:07:23.763Z,975.60
2023-04-21T12:08:24.005Z,975.61
2023-04-21T12:09:24.259Z,975.83
2023-04-21T12:10:24.497Z,975.84
2023-04-21T12:11:24.737Z,975.84
2023-04-21T12:12:24.966Z,975.81
2023-04-21T12:13:25.212Z,975.59
2023-04-21T12:14:25.435Z,975.83
2023-04-21T12:15:25.714Z,975.79
2023-04-21T12:16:25.448Z,975.75
2023-04-21T12:17:25.141Z,975.69
2023-04-21T12:18:24.810Z,975.59
2023-04-21T12:19:25.033Z,975.54
2023-04-21T12:20:25.255Z,975.47
2023-04-21T12:21:25.462Z,975.38
2023-04-21T12:22:25.666Z,975.34
2023-04-21T12:23:25.850Z,975.27
2023-04-21T12:24:26.054Z,975.27
2023-04-21T12:25:25.693Z,975.25
2023-04-21T12:26:25.892Z,975.23
2023-04-21T12:27:26.082Z,975.01
2023-04-21T12:28:26.257Z,975.28
2023-04-21T12:29:26.453Z,975.24
2023-04-21T12:30:26.635Z,975.06
2023-04-21T12:31:26.944Z,975.17
2023-04-21T12:32:26.618Z,975.23
2023-04-21T12:33:26.419Z,975.20
2023-04-21T12:34:26.138Z,975.38
2023-04-21T12:35:26.326Z,975.35
2023-04-21T12:36:26.557Z,975.33
2023-04-21T12:37:26.745Z,975.29
2023-04-21T12:38:26.953Z,975.24
2023-04-21T12:39:27.244Z,975.08